Time;durP1;ratioP1;P1;durP2;ratioP2;P2;SDS_P1;SDS_P2;PMS_P1;PMS_P2;Temp;Humidity;BMP_temperature;BMP_pressure;BME280_temperature;BME280_humidity;BME280_pressure;Samples;Min_cycle;Max_cycle;Signal;HPM_P1;HPM_P2
2021/12/09 00:01:03;;;;;;;70.93;33.65;;;2.10;99.90;;;;;;5113106;28;20019;-44
2021/12/09 00:03:32;;;;;;;72.82;32.65;;;2.10;99.90;;;;;;5112193;28;20027;-44
2021/12/09 00:05:59;;;;;;;71.35;32.40;;;2.00;99.90;;;;;;5112765;28;20070;-45
2021/12/09 00:08:27;;;;;;;68.43;32.83;;;2.00;99.90;;;;;;5112435;28;20481;-43
2021/12/09 00:10:58;;;;;;;69.82;31.48;;;2.00;99.90;;;;;;5100958;28;20099;-44
2021/12/09 00:13:26;;;;;;;72.43;33.05;;;2.00;99.90;;;;;;5104328;28;20100;-44
2021/12/09 00:15:52;;;;;;;69.07;33.88;;;2.00;99.90;;;;;;5112651;28;20035;-44
2021/12/09 00:18:18;;;;;;;68.93;31.25;;;2.00;99.90;;;;;;5111824;28;20073;-43
2021/12/09 00:20:44;;;;;;;74.13;33.22;;;2.00;99.90;;;;;;5112714;28;20030;-45
2021/12/09 00:23:10;;;;;;;72.88;34.80;;;2.00;99.90;;;;;;5112496;28;20024;-44
2021/12/09 00:25:36;;;;;;;71.90;31.63;;;2.00;99.90;;;;;;5112295;28;20024;-43
2021/12/09 00:28:03;;;;;;;71.15;32.53;;;1.90;99.90;;;;;;5111864;28;20473;-44
2021/12/09 00:30:30;;;;;;;71.68;32.33;;;1.90;99.90;;;;;;5111142;28;20031;-44
2021/12/09 00:32:56;;;;;;;77.10;34.53;;;1.90;99.90;;;;;;5112387;28;20110;-46
2021/12/09 00:35:27;;;;;;;69.03;31.83;;;1.90;99.90;;;;;;5112343;28;20035;-45
2021/12/09 00:38:01;;;;;;;75.28;33.85;;;1.90;99.90;;;;;;5111866;28;20405;-44
2021/12/09 00:40:27;;;;;;;76.13;34.40;;;1.90;99.90;;;;;;5110471;28;20476;-43
2021/12/09 00:42:52;;;;;;;72.70;31.67;;;1.90;99.90;;;;;;5100061;28;20039;-44
2021/12/09 00:45:18;;;;;;;71.90;32.88;;;1.90;99.90;;;;;;5112247;28;20039;-45
2021/12/09 00:47:44;;;;;;;77.57;35.78;;;2.00;99.90;;;;;;5111373;28;20031;-47
2021/12/09 00:50:11;;;;;;;72.97;34.50;;;1.90;99.90;;;;;;5112270;28;20023;-44
2021/12/09 00:52:37;;;;;;;74.22;35.63;;;1.90;99.90;;;;;;5112069;28;20028;-44
2021/12/09 00:55:04;;;;;;;69.55;32.83;;;1.90;99.90;;;;;;5111998;28;20100;-45
2021/12/09 00:57:29;;;;;;;76.10;34.00;;;1.90;99.90;;;;;;5109823;28;20054;-44
2021/12/09 00:59:55;;;;;;;68.53;33.05;;;1.90;99.90;;;;;;5111555;28;20028;-45
2021/12/09 01:02:21;;;;;;;72.38;34.65;;;1.90;99.90;;;;;;5110451;28;20020;-43
2021/12/09 01:04:47;;;;;;;71.97;33.55;;;1.90;99.90;;;;;;5111815;28;20119;-43
2021/12/09 01:07:13;;;;;;;78.60;33.90;;;1.90;99.90;;;;;;5111260;28;20032;-44
2021/12/09 01:09:39;;;;;;;70.93;34.72;;;1.90;99.90;;;;;;5110206;28;20435;-46
2021/12/09 01:12:06;;;;;;;69.70;32.42;;;1.90;99.90;;;;;;5103987;28;20104;-44
2021/12/09 01:14:32;;;;;;;74.05;34.13;;;1.90;99.90;;;;;;5105218;28;20027;-44
2021/12/09 01:16:58;;;;;;;79.00;34.47;;;1.90;99.90;;;;;;5111337;28;20020;-44
2021/12/09 01:19:23;;;;;;;77.78;35.35;;;1.90;99.90;;;;;;5110965;28;20383;-43
2021/12/09 01:21:49;;;;;;;66.28;32.53;;;1.90;99.90;;;;;;5111394;28;20027;-43
2021/12/09 01:24:14;;;;;;;74.65;34.78;;;1.80;99.90;;;;;;5111322;28;20059;-45
2021/12/09 01:26:41;;;;;;;75.95;35.50;;;1.80;99.90;;;;;;5109907;28;20019;-47
2021/12/09 01:29:16;;;;;;;76.47;35.03;;;1.80;99.90;;;;;;5110788;28;20023;-44
2021/12/09 01:31:50;;;;;;;70.57;33.53;;;1.80;99.90;;;;;;5111256;28;20060;-43
2021/12/09 01:34:16;;;;;;;86.22;34.20;;;1.90;99.90;;;;;;5102282;28;20028;-46
2021/12/09 01:36:42;;;;;;;79.22;34.83;;;1.80;99.90;;;;;;5090476;28;20055;-45
2021/12/09 01:39:09;;;;;;;77.18;34.20;;;1.90;99.90;;;;;;5089250;28;20032;-44
2021/12/09 01:41:34;;;;;;;69.88;32.88;;;1.90;99.90;;;;;;5088920;28;20012;-44
2021/12/09 01:44:00;;;;;;;74.28;34.28;;;1.80;99.90;;;;;;5091002;28;20544;-43
2021/12/09 01:46:25;;;;;;;70.57;34.92;;;1.80;99.90;;;;;;5088891;28;20028;-46
2021/12/09 01:48:52;;;;;;;74.22;32.17;;;1.80;99.90;;;;;;5088026;28;20048;-44
2021/12/09 01:51:18;;;;;;;73.55;35.63;;;1.80;99.90;;;;;;5088780;28;20204;-44
2021/12/09 01:53:45;;;;;;;74.68;33.78;;;1.80;99.90;;;;;;5088630;28;20383;-44
2021/12/09 01:56:15;;;;;;;78.72;34.72;;;1.80;99.90;;;;;;5088501;28;20024;-43
2021/12/09 01:58:40;;;;;;;75.63;34.30;;;1.80;99.90;;;;;;5087851;28;20054;-43
2021/12/09 02:01:06;;;;;;;74.50;35.40;;;1.80;99.90;;;;;;5087165;28;20032;-44
2021/12/09 02:03:33;;;;;;;77.63;34.58;;;1.80;99.90;;;;;;5088490;28;20027;-43
2021/12/09 02:05:59;;;;;;;74.38;32.97;;;1.80;99.90;;;;;;5088484;28;20100;-43
2021/12/09 02:08:25;;;;;;;80.32;35.38;;;1.70;99.90;;;;;;5087721;28;20246;-44
2021/12/09 02:10:51;;;;;;;76.00;33.53;;;1.70;99.90;;;;;;5085140;28;20017;-43
2021/12/09 02:13:17;;;;;;;72.30;32.78;;;1.70;99.90;;;;;;5094335;28;20084;-44
2021/12/09 02:15:43;;;;;;;75.30;33.15;;;1.70;99.90;;;;;;5108961;28;20027;-44
2021/12/09 02:18:11;;;;;;;75.63;32.33;;;1.70;99.90;;;;;;5108200;28;20042;-44
2021/12/09 02:20:38;;;;;;;81.75;36.25;;;1.70;99.90;;;;;;5094840;28;20032;-44
2021/12/09 02:23:09;;;;;;;72.72;33.97;;;1.70;99.90;;;;;;5088641;28;20032;-43
2021/12/09 02:25:36;;;;;;;75.57;33.80;;;1.70;99.90;;;;;;5088684;28;20078;-43
2021/12/09 02:28:02;;;;;;;72.32;32.67;;;1.70;99.90;;;;;;5090032;28;20056;-44
2021/12/09 02:30:28;;;;;;;75.28;34.05;;;1.70;99.90;;;;;;5092792;28;20343;-46
2021/12/09 02:32:54;;;;;;;73.78;32.30;;;1.70;99.90;;;;;;5092862;28;20020;-43
2021/12/09 02:35:19;;;;;;;69.78;33.13;;;1.70;99.90;;;;;;5091265;28;20028;-44
2021/12/09 02:37:45;;;;;;;78.65;33.83;;;1.70;99.90;;;;;;5092030;28;20031;-46
2021/12/09 02:40:12;;;;;;;81.03;37.08;;;1.70;99.90;;;;;;5092490;28;20024;-44
2021/12/09 02:42:38;;;;;;;85.13;34.40;;;1.60;99.90;;;;;;5095302;28;20024;-44
2021/12/09 02:45:07;;;;;;;81.40;35.03;;;1.70;99.90;;;;;;5111020;28;20049;-44
2021/12/09 02:47:33;;;;;;;79.45;33.70;;;1.60;99.90;;;;;;5111905;28;20055;-43
2021/12/09 02:49:59;;;;;;;75.57;34.80;;;1.60;99.90;;;;;;5112852;28;20491;-44
2021/12/09 02:52:26;;;;;;;77.10;34.95;;;1.60;99.90;;;;;;5113082;28;20269;-44
2021/12/09 02:54:52;;;;;;;69.97;33.17;;;1.60;99.90;;;;;;5112517;28;20055;-43
2021/12/09 02:57:18;;;;;;;71.50;34.42;;;1.60;99.90;;;;;;5111741;28;20059;-44
2021/12/09 02:59:44;;;;;;;74.00;32.80;;;1.60;99.90;;;;;;5112440;28;20085;-44
2021/12/09 03:02:11;;;;;;;82.18;33.10;;;1.60;99.90;;;;;;5112601;28;20119;-44
2021/12/09 03:04:47;;;;;;;81.55;34.38;;;1.60;99.90;;;;;;5112393;28;20481;-44
2021/12/09 03:07:18;;;;;;;79.78;34.17;;;1.60;99.90;;;;;;5111823;28;20438;-44
2021/12/09 03:09:51;;;;;;;82.40;35.85;;;1.60;99.90;;;;;;5112357;28;20469;-44
2021/12/09 03:12:20;;;;;;;80.88;33.85;;;1.60;99.90;;;;;;5104332;28;20020;-43
2021/12/09 03:14:47;;;;;;;71.07;32.28;;;1.60;99.90;;;;;;5106954;28;20051;-44
2021/12/09 03:17:13;;;;;;;71.78;33.13;;;1.60;99.90;;;;;;5111822;28;20032;-44
2021/12/09 03:19:38;;;;;;;81.78;33.90;;;1.60;99.90;;;;;;5111987;28;20472;-43
2021/12/09 03:22:04;;;;;;;76.30;32.85;;;1.60;99.90;;;;;;5112086;28;20488;-44
2021/12/09 03:24:30;;;;;;;71.95;32.70;;;1.60;99.90;;;;;;5112083;28;20039;-44
2021/12/09 03:26:57;;;;;;;77.85;32.75;;;1.60;99.90;;;;;;5111816;28;20023;-43
2021/12/09 03:29:25;;;;;;;76.85;33.65;;;1.60;99.90;;;;;;5111486;28;20020;-43
2021/12/09 03:31:53;;;;;;;81.72;33.97;;;1.60;99.90;;;;;;5111912;28;20027;-45
2021/12/09 03:34:22;;;;;;;76.95;34.17;;;1.60;99.90;;;;;;5110434;28;20051;-44
2021/12/09 03:36:50;;;;;;;83.18;31.95;;;1.60;99.90;;;;;;5110453;28;20119;-45
2021/12/09 03:39:20;;;;;;;76.30;33.75;;;1.60;99.90;;;;;;5111067;28;20028;-44
2021/12/09 03:41:50;;;;;;;80.43;33.85;;;1.60;99.90;;;;;;5106143;28;20488;-46
2021/12/09 03:44:16;;;;;;;76.72;33.25;;;1.60;99.90;;;;;;5094909;28;20055;-43
2021/12/09 03:46:42;;;;;;;71.60;31.50;;;1.60;99.90;;;;;;5111375;28;20097;-43
2021/12/09 03:49:07;;;;;;;76.85;32.70;;;1.60;99.90;;;;;;5110933;28;20434;-43
2021/12/09 03:51:35;;;;;;;76.68;35.35;;;1.60;99.90;;;;;;5111603;28;20023;-47
2021/12/09 03:54:02;;;;;;;68.90;32.33;;;1.60;99.90;;;;;;5111580;28;20046;-44
2021/12/09 03:56:28;;;;;;;79.60;34.92;;;1.70;99.90;;;;;;5111303;28;20055;-44
2021/12/09 03:58:53;;;;;;;82.05;35.53;;;1.60;99.90;;;;;;5111193;28;20063;-43
2021/12/09 04:01:19;;;;;;;76.50;33.55;;;1.60;99.90;;;;;;5100258;28;20032;-43
2021/12/09 04:03:45;;;;;;;72.72;33.30;;;1.60;99.90;;;;;;5090806;28;20028;-44
2021/12/09 04:06:10;;;;;;;78.72;33.75;;;1.60;99.90;;;;;;5090759;28;20020;-45
2021/12/09 04:08:36;;;;;;;82.15;33.85;;;1.60;99.90;;;;;;5090172;28;20024;-43
2021/12/09 04:11:01;;;;;;;79.57;33.00;;;1.60;99.90;;;;;;5088184;28;20552;-44
2021/12/09 04:13:28;;;;;;;80.65;34.08;;;1.60;99.90;;;;;;5102536;28;20031;-43
2021/12/09 04:15:54;;;;;;;81.43;34.47;;;1.60;99.90;;;;;;5111074;28;20072;-43
2021/12/09 04:18:20;;;;;;;79.88;34.42;;;1.60;99.90;;;;;;5110333;28;20208;-44
2021/12/09 04:20:46;;;;;;;83.50;35.28;;;1.60;99.90;;;;;;5109794;28;20021;-45
2021/12/09 04:23:13;;;;;;;74.95;32.65;;;1.60;99.90;;;;;;5111081;28;20503;-43
2021/12/09 04:25:38;;;;;;;85.30;36.17;;;1.60;99.90;;;;;;5111245;28;20111;-44
2021/12/09 04:28:04;;;;;;;84.90;36.05;;;1.60;99.90;;;;;;5109429;28;20118;-43
2021/12/09 04:30:31;;;;;;;83.97;34.92;;;1.60;99.90;;;;;;5110370;28;20023;-43
2021/12/09 04:32:57;;;;;;;77.70;33.67;;;1.60;99.90;;;;;;5111043;28;20031;-42
2021/12/09 04:35:22;;;;;;;87.53;37.80;;;1.60;99.90;;;;;;5097646;27;20024;-44
2021/12/09 04:37:48;;;;;;;81.40;36.00;;;1.60;99.90;;;;;;5091076;28;20024;-43
2021/12/09 04:40:15;;;;;;;81.93;34.67;;;1.60;99.90;;;;;;5090281;28;20052;-45
2021/12/09 04:42:41;;;;;;;81.90;34.85;;;1.60;99.90;;;;;;5096250;28;20675;-45
2021/12/09 04:45:09;;;;;;;87.72;37.55;;;1.60;99.90;;;;;;5095431;28;20462;-44
2021/12/09 04:47:35;;;;;;;87.65;36.45;;;1.60;99.90;;;;;;5091554;28;20197;-44
2021/12/09 04:50:05;;;;;;;90.53;35.92;;;1.60;99.90;;;;;;5089178;28;20016;-45
2021/12/09 04:52:31;;;;;;;86.20;36.33;;;1.60;99.90;;;;;;5089614;28;20107;-45
2021/12/09 04:54:57;;;;;;;89.45;36.03;;;1.60;99.90;;;;;;5090145;28;20576;-46
2021/12/09 04:57:22;;;;;;;85.47;34.97;;;1.60;99.90;;;;;;5088649;28;20273;-48
2021/12/09 04:59:50;;;;;;;95.13;39.60;;;1.60;99.90;;;;;;5091036;28;20028;-45
2021/12/09 05:02:27;;;;;;;94.63;37.58;;;1.60;99.90;;;;;;5090105;28;20139;-44
2021/12/09 05:05:02;;;;;;;78.07;34.72;;;1.50;99.90;;;;;;5090369;28;20075;-44
2021/12/09 05:07:28;;;;;;;85.95;36.63;;;1.60;99.90;;;;;;5088969;28;20032;-44
2021/12/09 05:09:53;;;;;;;82.25;35.22;;;1.60;99.90;;;;;;5088435;28;20031;-45
2021/12/09 05:12:21;;;;;;;87.68;38.03;;;1.60;99.90;;;;;;5095261;28;20028;-44
2021/12/09 05:14:47;;;;;;;99.07;39.33;;;1.60;99.90;;;;;;5105881;28;20099;-46
2021/12/09 05:17:14;;;;;;;100.55;41.50;;;1.60;99.90;;;;;;5109295;28;20028;-45
2021/12/09 05:19:40;;;;;;;90.95;36.78;;;1.60;99.90;;;;;;5103159;28;20031;-45
2021/12/09 05:22:06;;;;;;;80.38;36.10;;;1.60;99.90;;;;;;5088032;28;20393;-42
2021/12/09 05:24:34;;;;;;;92.90;38.78;;;1.60;99.90;;;;;;5089397;28;20028;-43
2021/12/09 05:27:01;;;;;;;87.80;35.70;;;1.60;99.90;;;;;;5088818;28;20046;-43
2021/12/09 05:29:32;;;;;;;91.03;38.30;;;1.50;99.90;;;;;;5088746;28;20016;-42
2021/12/09 05:32:08;;;;;;;88.85;36.80;;;1.60;99.90;;;;;;5087869;28;20494;-42
2021/12/09 05:34:54;;;;;;;94.10;38.47;;;1.50;99.90;;;;;;5089549;28;20100;-42
2021/12/09 05:37:22;;;;;;;105.70;40.38;;;1.50;99.90;;;;;;5088264;28;20117;-43
2021/12/09 05:39:50;;;;;;;90.10;36.85;;;1.60;99.90;;;;;;5089282;28;20038;-44
2021/12/09 05:42:18;;;;;;;88.28;36.70;;;1.50;99.90;;;;;;5097128;28;20093;-45
2021/12/09 05:44:44;;;;;;;91.78;38.08;;;1.50;99.90;;;;;;5104806;28;20053;-45
2021/12/09 05:47:12;;;;;;;94.00;37.88;;;1.50;99.90;;;;;;5109379;28;20030;-45
2021/12/09 05:49:41;;;;;;;98.05;37.13;;;1.50;99.90;;;;;;5109258;28;20027;-43
2021/12/09 05:52:07;;;;;;;94.90;37.60;;;1.50;99.90;;;;;;5109304;28;20606;-41
2021/12/09 05:54:33;;;;;;;94.75;38.15;;;1.50;99.90;;;;;;5109314;28;20101;-42
2021/12/09 05:56:59;;;;;;;99.78;41.15;;;1.50;99.90;;;;;;5108947;28;20113;-41
2021/12/09 05:59:25;;;;;;;85.78;37.35;;;1.40;99.90;;;;;;5108315;28;20023;-42
2021/12/09 06:01:51;;;;;;;93.15;37.97;;;1.50;99.90;;;;;;5108223;28;20270;-41
2021/12/09 06:04:17;;;;;;;88.38;37.63;;;1.50;99.90;;;;;;5108754;28;20485;-42
2021/12/09 06:06:43;;;;;;;88.60;36.20;;;1.50;99.90;;;;;;5109168;28;20024;-42
2021/12/09 06:09:11;;;;;;;90.40;37.40;;;1.50;99.90;;;;;;5107188;28;20027;-44
2021/12/09 06:11:37;;;;;;;92.55;38.15;;;1.50;99.90;;;;;;5106670;28;20407;-43
2021/12/09 06:14:04;;;;;;;85.30;36.95;;;1.50;99.90;;;;;;5100400;28;20028;-44
2021/12/09 06:16:29;;;;;;;100.40;39.88;;;1.50;99.90;;;;;;5109052;28;20051;-44
2021/12/09 06:18:55;;;;;;;97.20;38.97;;;1.50;99.90;;;;;;5106903;28;20059;-43
2021/12/09 06:21:23;;;;;;;95.93;38.45;;;1.50;99.90;;;;;;5107668;28;20027;-44
2021/12/09 06:23:49;;;;;;;99.50;39.60;;;1.50;99.90;;;;;;5108915;28;20111;-45
2021/12/09 06:26:15;;;;;;;93.85;39.15;;;1.50;99.90;;;;;;5107397;28;20551;-43
2021/12/09 06:28:41;;;;;;;101.32;40.05;;;1.60;99.90;;;;;;5108304;28;20111;-44
2021/12/09 06:31:07;;;;;;;92.25;40.28;;;1.50;99.90;;;;;;5108861;28;20028;-44
2021/12/09 06:33:33;;;;;;;91.45;37.67;;;1.60;99.90;;;;;;5108780;28;20028;-44
2021/12/09 06:35:59;;;;;;;96.38;38.13;;;1.60;99.90;;;;;;5108763;28;20078;-45
2021/12/09 06:38:25;;;;;;;93.63;38.50;;;1.60;99.90;;;;;;5108334;28;20124;-44
2021/12/09 06:40:51;;;;;;;94.10;42.63;;;1.60;99.90;;;;;;5107604;28;20041;-44
2021/12/09 06:43:17;;;;;;;92.68;39.65;;;1.60;99.90;;;;;;5098651;28;20392;-44
2021/12/09 06:45:43;;;;;;;89.72;38.75;;;1.50;99.90;;;;;;5107590;28;20024;-44
2021/12/09 06:48:09;;;;;;;99.82;39.45;;;1.60;99.90;;;;;;5107993;28;20024;-45
2021/12/09 06:50:35;;;;;;;97.72;39.53;;;1.50;99.90;;;;;;5108855;28;20389;-41
2021/12/09 06:53:01;;;;;;;90.43;38.25;;;1.50;99.90;;;;;;5108687;28;20024;-42
2021/12/09 06:55:27;;;;;;;99.32;40.45;;;1.50;99.90;;;;;;5107373;28;20024;-42
2021/12/09 06:57:52;;;;;;;95.78;41.17;;;1.50;99.90;;;;;;5106447;28;20062;-42
2021/12/09 07:00:21;;;;;;;90.60;36.08;;;1.50;99.90;;;;;;5108547;28;20024;-42
2021/12/09 07:02:47;;;;;;;98.45;41.88;;;1.50;99.90;;;;;;5108867;28;20046;-43
2021/12/09 07:05:14;;;;;;;99.82;41.15;;;1.50;99.90;;;;;;5108577;28;20472;-42
2021/12/09 07:07:40;;;;;;;101.63;41.42;;;1.50;99.90;;;;;;5106741;28;20193;-43
2021/12/09 07:10:08;;;;;;;94.55;41.45;;;1.50;99.90;;;;;;5108428;28;20020;-43
2021/12/09 07:12:35;;;;;;;101.78;38.40;;;1.50;99.90;;;;;;5100822;28;20046;-44
2021/12/09 07:15:02;;;;;;;102.20;39.70;;;1.50;99.90;;;;;;5108645;28;20034;-43
2021/12/09 07:17:29;;;;;;;100.80;39.97;;;1.50;99.90;;;;;;5111511;28;20036;-43
2021/12/09 07:19:54;;;;;;;103.60;40.05;;;1.40;99.90;;;;;;5110895;28;20555;-43
2021/12/09 07:22:20;;;;;;;101.53;41.35;;;1.40;99.90;;;;;;5110912;28;20118;-44
2021/12/09 07:24:45;;;;;;;109.35;43.83;;;1.40;99.90;;;;;;5112155;28;20019;-43
2021/12/09 07:27:11;;;;;;;98.07;40.88;;;1.40;99.90;;;;;;5111541;28;20102;-48
2021/12/09 07:29:37;;;;;;;97.78;41.97;;;1.40;99.90;;;;;;5112372;28;20119;-49
2021/12/09 07:32:03;;;;;;;98.05;41.88;;;1.40;99.90;;;;;;5112611;28;20426;-51
2021/12/09 07:34:28;;;;;;;108.65;41.78;;;1.40;99.90;;;;;;5112429;28;20023;-49
2021/12/09 07:36:56;;;;;;;98.10;39.22;;;1.40;99.90;;;;;;5112749;28;20038;-48
2021/12/09 07:39:22;;;;;;;103.25;41.25;;;1.40;99.90;;;;;;5111871;28;20027;-51
2021/12/09 07:41:48;;;;;;;99.00;40.70;;;1.40;99.90;;;;;;5111846;28;20024;-48
2021/12/09 07:44:17;;;;;;;97.28;39.97;;;1.40;99.90;;;;;;5103957;28;20093;-51
2021/12/09 07:46:45;;;;;;;97.03;39.88;;;1.40;99.90;;;;;;5112100;28;20136;-49
2021/12/09 07:49:11;;;;;;;101.22;41.00;;;1.40;99.90;;;;;;5111608;28;20020;-48
2021/12/09 07:51:37;;;;;;;104.97;40.40;;;1.40;99.90;;;;;;5112195;28;20061;-48
2021/12/09 07:54:02;;;;;;;107.20;42.40;;;1.50;99.90;;;;;;5112007;28;20027;-48
2021/12/09 07:56:28;;;;;;;103.90;39.75;;;1.40;99.90;;;;;;5111677;28;20027;-48
2021/12/09 07:58:54;;;;;;;101.53;43.28;;;1.40;99.90;;;;;;5111307;28;20030;-49
2021/12/09 08:01:19;;;;;;;94.72;41.22;;;1.50;99.90;;;;;;5110830;28;20039;-49
2021/12/09 08:03:47;;;;;;;105.38;42.20;;;1.50;99.90;;;;;;5110348;28;20487;-49
2021/12/09 08:06:14;;;;;;;101.82;42.88;;;1.50;99.90;;;;;;5110163;28;20020;-48
2021/12/09 08:08:40;;;;;;;106.13;42.67;;;1.40;99.90;;;;;;5111283;28;20444;-50
2021/12/09 08:11:07;;;;;;;97.22;42.47;;;1.50;99.90;;;;;;5107436;28;20020;-48
2021/12/09 08:13:33;;;;;;;108.63;44.42;;;1.50;99.90;;;;;;5099078;28;20534;-50
2021/12/09 08:16:00;;;;;;;104.68;43.03;;;1.50;99.90;;;;;;5109023;28;20035;-48
2021/12/09 08:18:27;;;;;;;108.57;45.42;;;1.50;99.90;;;;;;5111026;28;20462;-49
2021/12/09 08:20:59;;;;;;;108.55;42.15;;;1.50;99.90;;;;;;5111478;28;20503;-49
2021/12/09 08:23:25;;;;;;;109.38;44.47;;;1.50;99.90;;;;;;5111355;28;20023;-49
2021/12/09 08:25:52;;;;;;;105.13;42.70;;;1.50;99.90;;;;;;5110381;28;20164;-49
2021/12/09 08:28:18;;;;;;;108.07;42.47;;;1.50;99.90;;;;;;5110582;28;20522;-50
2021/12/09 08:30:44;;;;;;;100.00;42.50;;;1.50;99.90;;;;;;5111410;28;20027;-48
2021/12/09 08:33:10;;;;;;;114.68;45.53;;;1.50;99.90;;;;;;5111148;28;20365;-47
2021/12/09 08:35:36;;;;;;;105.05;42.90;;;1.50;99.90;;;;;;5111151;28;20024;-49
2021/12/09 08:38:04;;;;;;;107.15;41.60;;;1.60;99.90;;;;;;5109251;28;20024;-48
2021/12/09 08:40:30;;;;;;;99.35;41.67;;;1.60;99.90;;;;;;5111148;28;20120;-48
2021/12/09 08:42:56;;;;;;;103.32;41.30;;;1.60;99.90;;;;;;5101390;28;20086;-48
2021/12/09 08:45:22;;;;;;;102.45;42.35;;;1.60;99.90;;;;;;5103370;28;20023;-48
2021/12/09 08:47:48;;;;;;;104.68;40.20;;;1.60;99.90;;;;;;5110199;28;20038;-48
2021/12/09 08:50:19;;;;;;;109.15;42.33;;;1.60;99.90;;;;;;5110763;28;20016;-48
2021/12/09 08:52:45;;;;;;;93.03;41.10;;;1.60;99.90;;;;;;5111122;28;20024;-48
2021/12/09 08:55:11;;;;;;;104.78;43.25;;;1.70;99.90;;;;;;5110668;28;20031;-48
2021/12/09 08:57:37;;;;;;;101.00;40.97;;;1.70;99.90;;;;;;5110099;28;20111;-49
2021/12/09 09:00:15;;;;;;;112.97;45.55;;;1.70;99.90;;;;;;5110657;28;20055;-48
2021/12/09 09:02:43;;;;;;;106.32;41.97;;;1.70;99.90;;;;;;5110524;28;20429;-48
2021/12/09 09:05:11;;;;;;;99.60;41.35;;;1.70;99.90;;;;;;5108955;28;20118;-48
2021/12/09 09:07:48;;;;;;;107.40;43.45;;;1.70;99.90;;;;;;5109962;28;20026;-48
2021/12/09 09:10:18;;;;;;;112.50;43.58;;;1.70;99.90;;;;;;5110266;28;20026;-49
2021/12/09 09:12:44;;;;;;;105.93;44.10;;;1.70;99.90;;;;;;5101152;28;20047;-48
2021/12/09 09:15:12;;;;;;;112.53;43.35;;;1.70;99.90;;;;;;5090621;28;20056;-48
2021/12/09 09:17:38;;;;;;;103.70;42.20;;;1.70;99.90;;;;;;5088752;28;20035;-48
2021/12/09 09:20:06;;;;;;;108.50;45.75;;;1.70;99.90;;;;;;5090045;28;20107;-47
2021/12/09 09:22:32;;;;;;;113.20;44.47;;;1.70;99.90;;;;;;5090141;28;20032;-47
2021/12/09 09:24:58;;;;;;;101.95;44.10;;;1.70;99.90;;;;;;5090096;28;20393;-48
2021/12/09 09:27:23;;;;;;;97.53;39.47;;;1.70;99.90;;;;;;5089152;28;20028;-46
2021/12/09 09:29:49;;;;;;;102.05;40.40;;;1.70;99.90;;;;;;5089850;28;20500;-47
2021/12/09 09:32:14;;;;;;;100.38;42.58;;;1.70;99.90;;;;;;5090205;28;20016;-47
2021/12/09 09:34:41;;;;;;;112.70;45.78;;;1.70;99.90;;;;;;5089836;28;20039;-48
2021/12/09 09:37:07;;;;;;;103.93;43.67;;;1.80;99.90;;;;;;5089900;28;20031;-50
2021/12/09 09:39:33;;;;;;;119.65;48.28;;;1.80;99.90;;;;;;5088325;28;20020;-48
2021/12/09 09:44:47;;;;;;;106.78;43.13;;;1.80;99.90;;;;;;5092534;28;20057;-47
2021/12/09 09:47:14;;;;;;;94.70;41.95;;;1.80;99.90;;;;;;5089180;28;20021;-49
2021/12/09 09:49:40;;;;;;;104.20;43.33;;;1.90;99.90;;;;;;5089443;28;20157;-47
2021/12/09 09:52:08;;;;;;;104.00;43.90;;;1.90;99.90;;;;;;5089566;28;20454;-47
2021/12/09 09:54:34;;;;;;;102.47;42.42;;;1.90;99.90;;;;;;5089358;28;20020;-47
2021/12/09 09:56:59;;;;;;;117.93;45.78;;;1.90;99.90;;;;;;5089380;28;20024;-47
2021/12/09 09:59:25;;;;;;;98.20;42.70;;;2.00;99.90;;;;;;5088898;28;20032;-47
2021/12/09 10:01:55;;;;;;;100.82;42.88;;;2.00;99.90;;;;;;5089290;28;20501;-48
2021/12/09 10:04:44;;;;;;;105.90;43.83;;;2.00;99.90;;;;;;5089086;28;20020;-48
2021/12/09 10:07:12;;;;;;;100.65;41.80;;;2.00;99.90;;;;;;5089048;28;20103;-47
2021/12/09 10:09:39;;;;;;;97.85;42.03;;;2.10;99.90;;;;;;5087904;28;20028;-47
2021/12/09 10:12:05;;;;;;;101.57;44.20;;;2.10;99.90;;;;;;5082499;28;20020;-48
2021/12/09 10:14:33;;;;;;;106.68;43.88;;;2.00;99.90;;;;;;5095308;28;20020;-47
2021/12/09 10:17:08;;;;;;;107.18;43.83;;;2.00;99.90;;;;;;5088984;28;20036;-47
2021/12/09 10:19:37;;;;;;;100.10;42.03;;;2.10;99.90;;;;;;5086798;28;20197;-47
2021/12/09 10:22:10;;;;;;;112.10;46.17;;;2.10;99.90;;;;;;5087776;28;20073;-48
2021/12/09 10:24:36;;;;;;;106.78;43.70;;;2.00;99.90;;;;;;5088297;28;20406;-47
2021/12/09 10:27:02;;;;;;;98.43;43.13;;;2.10;99.90;;;;;;5087948;28;20020;-48
2021/12/09 10:29:36;;;;;;;108.90;43.72;;;2.10;99.90;;;;;;5087546;28;20024;-48
2021/12/09 10:32:08;;;;;;;104.20;41.47;;;2.10;99.90;;;;;;5088507;28;20103;-51
2021/12/09 10:34:46;;;;;;;116.28;47.53;;;2.20;99.90;;;;;;5088056;28;20063;-47
2021/12/09 10:37:26;;;;;;;101.55;41.97;;;2.20;99.90;;;;;;5086734;28;20105;-48
2021/12/09 10:40:12;;;;;;;103.32;42.90;;;2.30;99.90;;;;;;5088195;28;20482;-48
2021/12/09 10:42:43;;;;;;;107.38;44.33;;;2.20;99.90;;;;;;5087773;28;20072;-48
2021/12/09 10:45:24;;;;;;;94.68;42.80;;;2.30;99.90;;;;;;5096764;28;20028;-48
2021/12/09 10:48:01;;;;;;;;;;;2.20;99.90;;;;;;5088591;28;20028;-47
2021/12/09 10:50:40;;;;;;;104.00;45.15;;;2.30;99.90;;;;;;5092106;28;19941;-47
2021/12/09 10:55:55;;;;;;;112.90;45.05;;;2.30;99.90;;;;;;5092043;28;20059;-50
2021/12/09 10:58:30;;;;;;;96.47;40.45;;;2.30;99.90;;;;;;5091757;28;20032;-49
2021/12/09 11:01:02;;;;;;;114.63;43.28;;;2.30;99.90;;;;;;5091812;28;20020;-48
2021/12/09 11:03:32;;;;;;;95.45;42.58;;;2.30;99.90;;;;;;5091532;28;20039;-47
2021/12/09 11:06:03;;;;;;;108.38;44.85;;;2.30;99.90;;;;;;5092244;28;20110;-47
2021/12/09 11:08:40;;;;;;;104.50;43.88;;;2.30;99.90;;;;;;5091424;28;20036;-47
2021/12/09 11:11:09;;;;;;;99.30;41.30;;;2.30;99.90;;;;;;5090893;28;20020;-48
2021/12/09 11:13:39;;;;;;;111.68;44.78;;;2.40;99.90;;;;;;5094178;28;20108;-48
2021/12/09 11:16:06;;;;;;;83.20;33.58;;;2.40;99.90;;;;;;5110847;28;20062;-48
2021/12/09 11:18:43;;;;;;;105.28;43.78;;;2.50;99.90;;;;;;5111252;28;20499;-49
2021/12/09 11:21:22;;;;;;;96.93;43.38;;;2.50;99.90;;;;;;5112020;28;20059;-50
2021/12/09 11:23:58;;;;;;;108.95;44.75;;;2.50;99.90;;;;;;5112299;28;20461;-50
2021/12/09 11:26:37;;;;;;;103.45;42.38;;;2.50;99.90;;;;;;5111803;28;20108;-50
2021/12/09 11:29:08;;;;;;;95.78;43.72;;;2.60;99.90;;;;;;5111475;28;20023;-49
2021/12/09 11:31:40;;;;;;;96.38;43.45;;;2.60;99.90;;;;;;5111497;28;20015;-48
2021/12/09 11:34:13;;;;;;;103.00;43.88;;;2.60;99.90;;;;;;5111906;28;20495;-49
2021/12/09 11:36:45;;;;;;;105.75;44.78;;;2.60;99.90;;;;;;5110450;28;20035;-48
2021/12/09 11:39:18;;;;;;;102.55;43.33;;;2.60;99.90;;;;;;5111550;28;20041;-48
2021/12/09 11:41:44;;;;;;;101.72;44.05;;;2.60;99.90;;;;;;5104799;28;20123;-50
2021/12/09 11:44:11;;;;;;;99.82;44.38;;;2.50;99.90;;;;;;5106701;28;20020;-49
2021/12/09 11:46:40;;;;;;;101.72;45.92;;;2.50;99.90;;;;;;5089459;28;20024;-48
2021/12/09 11:49:06;;;;;;;105.50;46.47;;;2.60;99.90;;;;;;5089357;28;20087;-48
2021/12/09 11:51:32;;;;;;;105.32;47.50;;;2.50;99.90;;;;;;5089442;28;20443;-50
2021/12/09 11:54:00;;;;;;;114.10;48.63;;;2.60;99.90;;;;;;5090960;28;20032;-48
2021/12/09 12:11:23;;;;;;;109.20;46.42;;;2.70;99.90;;;;;;5090535;28;20724;-48
2021/12/09 12:13:58;;;;;;;109.85;46.05;;;2.70;99.90;;;;;;5095125;28;20081;-48
2021/12/09 12:16:55;;;;;;;114.00;43.58;;;2.70;99.90;;;;;;5070508;28;20035;-50
2021/12/09 12:28:55;;;;;;;102.13;44.78;;;2.70;99.90;;;;;;5070463;28;20115;-47
2021/12/09 12:39:35;;;;;;;119.13;47.13;;;2.60;99.90;;;;;;5077946;28;20032;-49
2021/12/09 12:42:12;;;;;;;108.53;47.70;;;2.60;99.90;;;;;;5089212;28;20028;-48
2021/12/09 12:45:15;;;;;;;116.75;46.20;;;2.60;99.90;;;;;;5103750;28;20031;-50
2021/12/09 12:47:49;;;;;;;109.57;43.83;;;2.60;99.90;;;;;;5092426;28;20453;-49
2021/12/09 12:50:16;;;;;;;111.10;46.70;;;2.70;99.90;;;;;;5089224;28;20063;-50
2021/12/09 12:52:44;;;;;;;109.55;47.38;;;2.80;99.90;;;;;;5089589;28;20431;-49
2021/12/09 12:55:13;;;;;;;103.20;43.53;;;2.80;99.90;;;;;;5089726;28;20016;-48
2021/12/09 12:57:44;;;;;;;107.55;45.28;;;2.90;99.90;;;;;;5089148;28;20035;-49
2021/12/09 13:00:14;;;;;;;;;;;2.90;99.90;;;;;;5090394;28;20058;-48
2021/12/09 13:03:03;;;;;;;117.57;46.22;;;2.80;99.90;;;;;;5089357;28;19911;-49
2021/12/09 13:05:50;;;;;;;117.97;45.90;;;2.90;99.90;;;;;;5089456;28;20125;-49
2021/12/09 13:08:41;;;;;;;108.82;46.67;;;2.80;99.90;;;;;;5089381;28;20033;-48
2021/12/09 13:11:14;;;;;;;126.85;48.60;;;2.70;99.90;;;;;;5089066;28;20032;-49
2021/12/09 13:13:51;;;;;;;113.72;46.75;;;2.60;99.90;;;;;;5099444;28;20031;-49
2021/12/09 13:16:41;;;;;;;109.43;44.03;;;2.60;99.90;;;;;;5068271;28;20390;-48